Thunder radar more information blitzortung!


Radar de pluja more information rain snow radar


Visita la nostra xarxa de llocs de meteo:

Template documentation
and downloads

And another site



No particular awareness of the weather is required.    There are no Weather-warnings

Pagina Historial Weather Underground text

Diari Resum Setembre 20, 2017 Unitats:  Mètric    Imperial   Tant
« Previous Dia
SegĂźent Dia »
Diari Setmana Mensual Anual Personalitzada
  Maxima: Minima: Media:
Temperatura: -17.8 °C -11.3 °C -7.6 °C
Punt de rosada: -17.8 °C -14.1 °C -12.6 °C
Humitat: Humidity % 44 % 57 %
Wind Speed: 0 km/h 0 km/h 9.3 km/h
RĂ fegues de vent: 0 km/h - -
Vent:- - ESE
Pression baro: 0 hPa 34428.8 hPa -
Precipitacions: 0 mm    
Historical Graphs
 
 
Dades de taula per Setembre 20, 2017
Temps Temperatura Punt de rosada Pression baro Vent Wind Speed RĂ fegues de vent Humitat Rainfall Rate (Hourly)
-17.8 °C -17.8 °C 0 hPa Calm     Humidity % 0 mm
00:00 -10.4 °C -12.9 °C 34533.8 hPa Calm   5.1 km/h 74 % 0 mm
00:02 -8.8 °C -12.6 °C 34533.8 hPa Calm     64 % 0 mm
00:10 -10.4 °C -12.9 °C 34533.8 hPa NNW 2.6 km/h 7.7 km/h 74 % 0 mm
00:20 -10.6 °C -13.1 °C 34533.8 hPa NW 2.6 km/h 5.1 km/h 74 % 0 mm
00:30 -10.4 °C -13 °C 34533.8 hPa NNE 12.9 km/h 12.9 km/h 73 % 0 mm
00:40 -10.2 °C -12.9 °C 34533.8 hPa NNE 12.9 km/h 18.2 km/h 72 % 0 mm
00:50 -10.3 °C -13 °C 34533.8 hPa NNE 7.7 km/h 12.9 km/h 72 % 0 mm
01:00 -10.3 °C -12.9 °C 34496.6 hPa NNE 15.6 km/h 15.6 km/h 73 % 0 mm
01:10 -10.4 °C -13.1 °C 34533.8 hPa NNE 5.1 km/h 12.9 km/h 73 % 0 mm
01:20 -10.6 °C -13.2 °C 34533.8 hPa NNE 7.7 km/h 10.3 km/h 73 % 0 mm
01:30 -10.7 °C -13.3 °C 34533.8 hPa Calm   10.3 km/h 73 % 0 mm
01:40 -10.9 °C -13.4 °C 34533.8 hPa Calm   2.6 km/h 74 % 0 mm
01:50 -11.1 °C -13.6 °C 34533.8 hPa Calm   5.1 km/h 74 % 0 mm
02:00 -11.2 °C -13.7 °C 34533.8 hPa SW 5.1 km/h 5.1 km/h 74 % 0 mm
02:10 -11.1 °C -13.4 °C 34533.8 hPa WSW 2.6 km/h 2.6 km/h 75 % 0 mm
02:20 -11.1 °C -13.3 °C 34533.8 hPa Calm   2.6 km/h 76 % 0 mm
02:30 -11.1 °C -13.4 °C 34567.7 hPa Calm     76 % 0 mm
02:40 -11.2 °C -13.4 °C 34496.6 hPa Calm   2.6 km/h 76 % 0 mm
02:50 -11.2 °C -13.5 °C 34496.6 hPa Calm   2.6 km/h 76 % 0 mm
03:00 -11.3 °C -13.7 °C 34533.8 hPa Calm   5.1 km/h 75 % 0 mm
03:10 -11.3 °C -13.7 °C 34496.6 hPa Calm   2.6 km/h 75 % 0 mm
03:20 -11 °C -13.5 °C 34496.6 hPa Calm     74 % 0 mm
03:30 -10.6 °C -12.9 °C 34533.8 hPa SW 2.6 km/h 5.1 km/h 75 % 0 mm
03:40 -10.6 °C -13.2 °C 34533.8 hPa ENE 2.6 km/h 7.7 km/h 73 % 0 mm
03:50 -10.3 °C -13.1 °C 34533.8 hPa NE 7.7 km/h 10.3 km/h 72 % 0 mm
04:00 -10 °C -13 °C 34567.7 hPa NNE 2.6 km/h 7.7 km/h 70 % 0 mm
04:10 -9.6 °C -12.9 °C 34533.8 hPa NNE 2.6 km/h 5.1 km/h 68 % 0 mm
04:20 -9.7 °C -13.2 °C 34533.8 hPa North 2.6 km/h 5.1 km/h 66 % 0 mm
04:30 -9.8 °C -13.3 °C 34533.8 hPa NNE 7.7 km/h 10.3 km/h 66 % 0 mm
04:40 -9.9 °C -13.6 °C 34533.8 hPa NNE 7.7 km/h 10.3 km/h 64 % 0 mm
04:50 -9.6 °C -13.2 °C 34533.8 hPa Calm   10.3 km/h 65 % 0 mm
05:00 -9.1 °C -12.7 °C 34533.8 hPa NE 5.1 km/h 7.7 km/h 65 % 0 mm
05:10 -8.9 °C -12.7 °C 34533.8 hPa NE 5.1 km/h 7.7 km/h 64 % 0 mm
05:20 -8.7 °C -12.6 °C 34533.8 hPa NE 5.1 km/h 10.3 km/h 63 % 0 mm
10:30 -8.1 °C -12.4 °C 34533.8 hPa NNE 9 km/h 9 km/h 60 % 0 mm
10:35 -8.1 °C -12.6 °C 34533.8 hPa NNE 11.9 km/h 11.9 km/h 59 % 0 mm
10:40 -7.9 °C -12.4 °C 34533.8 hPa ENE 9 km/h 9 km/h 59 % 0 mm
10:45 -7.7 °C -12.2 °C 34533.8 hPa NNE 10.3 km/h 10.3 km/h 59 % 0 mm
10:50 -7.6 °C -12.2 °C 34533.8 hPa NNE 12.7 km/h 12.7 km/h 58 % 0 mm
10:55 -7.6 °C -12.4 °C 34533.8 hPa NNE 11.9 km/h 11.9 km/h 57 % 0 mm
11:00 -7.6 °C -12.4 °C 34533.8 hPa NNE 11.9 km/h 11.9 km/h 57 % 0 mm
11:05 -7.4 °C -12.1 °C 34567.7 hPa NNE 11.9 km/h 11.9 km/h 58 % 0 mm
11:10 -7.4 °C -12.1 °C 34567.7 hPa ESE 15 km/h 15 km/h 58 % 0 mm
11:15 -7.4 °C -12.1 °C 34567.7 hPa ESE 11.1 km/h 11.1 km/h 58 % 0 mm
11:20 -7.4 °C -12.1 °C 34533.8 hPa ENE 15 km/h 15 km/h 58 % 0 mm
11:25 -7.1 °C -11.8 °C 34533.8 hPa NNE 6.3 km/h 6.3 km/h 58 % 0 mm
11:30 -7 °C -11.7 °C 34533.8 hPa East 15 km/h 15 km/h 58 % 0 mm
11:35 -7.1 °C -11.7 °C 34533.8 hPa ENE 14 km/h 14 km/h 59 % 0 mm
11:40 -7 °C -11.6 °C 34533.8 hPa NNE 9 km/h 9.8 km/h 59 % 0 mm
11:45 -6.9 °C -11.4 °C 34533.8 hPa NNE 15.3 km/h 15.3 km/h 60 % 0 mm
11:50 -6.9 °C -11.4 °C 34533.8 hPa SSE 15 km/h 15 km/h 59 % 0 mm
11:55 -6.7 °C -11.3 °C 34533.8 hPa ESE 15 km/h 15 km/h 59 % 0 mm
12:00 -6.7 °C -11.4 °C 34533.8 hPa NNE 17.9 km/h 17.9 km/h 58 % 0 mm
12:05 -6.7 °C -11.3 °C 34533.8 hPa East 26.9 km/h 26.9 km/h 59 % 0 mm
12:10 -6.6 °C -11.2 °C 34533.8 hPa SE 23.8 km/h 23.8 km/h 59 % 0 mm
12:11 -6.6 °C -11.2 °C 34533.8 hPa ESE 20.9 km/h 20.9 km/h 59 % 0 mm
12:16 -6.6 °C -11.3 °C 34533.8 hPa ENE 15 km/h 15 km/h 58 % 0 mm
12:21 -6.4 °C -11.2 °C 34533.8 hPa NE 17.9 km/h 17.9 km/h 58 % 0 mm
12:26 -6.4 °C -11.2 °C 34533.8 hPa SSE 11.9 km/h 11.9 km/h 58 % 0 mm
12:31 -6.2 °C -11 °C 34533.8 hPa ENE 11.9 km/h 11.9 km/h 58 % 0 mm
12:36 -6.2 °C -10.9 °C 34496.6 hPa SE 11.9 km/h 11.9 km/h 58 % 0 mm
12:41 -6.3 °C -11.2 °C 34496.6 hPa SSE 15.3 km/h 15.3 km/h 57 % 0 mm
12:46 -5.8 °C -10.7 °C 34496.6 hPa SSW 15 km/h 15 km/h 57 % 0 mm
12:51 -6.1 °C -11.3 °C 34533.8 hPa ESE 17.9 km/h 17.9 km/h 55 % 0 mm
12:56 -6.4 °C -11.4 °C 34533.8 hPa ESE 15 km/h 15 km/h 56 % 0 mm
13:01 -6.2 °C -11.3 °C 34533.8 hPa SSE 10.3 km/h 10.3 km/h 56 % 0 mm
13:06 -6.1 °C -11.2 °C 34533.8 hPa West 15 km/h 15 km/h 56 % 0 mm
13:11 -6.2 °C -11.4 °C 34533.8 hPa ENE 9 km/h 9 km/h 55 % 0 mm
13:16 -5.9 °C -11.2 °C 34533.8 hPa East 15 km/h 15 km/h 55 % 0 mm
13:21 -5.9 °C -11.5 °C 34533.8 hPa WSW 15 km/h 15 km/h 53 % 0 mm
13:26 -5.9 °C -11.4 °C 34533.8 hPa ENE 16.6 km/h 16.6 km/h 53 % 0 mm
13:31 -5.8 °C -11.2 °C 34533.8 hPa ESE 23.8 km/h 23.8 km/h 54 % 0 mm
13:36 -5.8 °C -11.3 °C 34533.8 hPa ESE 17.9 km/h 17.9 km/h 53 % 0 mm
13:41 -5.7 °C -11.4 °C 34533.8 hPa SE 20.9 km/h 20.9 km/h 52 % 0 mm
13:46 -5.6 °C -11.1 °C 34533.8 hPa ESE 23.8 km/h 23.8 km/h 53 % 0 mm
13:51 -5.4 °C -11.2 °C 34533.8 hPa ESE 15 km/h 15 km/h 52 % 0 mm
13:56 -5.7 °C -11.4 °C 34533.8 hPa ESE 20.9 km/h 20.9 km/h 52 % 0 mm
14:01 -5.9 °C -11.6 °C 34533.8 hPa East 17.9 km/h 17.9 km/h 52 % 0 mm
14:02 -5.8 °C -11.6 °C 34533.8 hPa NNE 15 km/h 15 km/h 52 % 0 mm
14:07 -5.7 °C -11.4 °C 34496.6 hPa ENE 17.9 km/h 17.9 km/h 52 % 0 mm
14:12 -5.6 °C -11.3 °C 34496.6 hPa ENE 20.9 km/h 20.9 km/h 52 % 0 mm
14:17 -5.3 °C -11.1 °C 34496.6 hPa ESE 15 km/h 15 km/h 52 % 0 mm
14:22 -5.5 °C -11.4 °C 34533.8 hPa ENE 15 km/h 15 km/h 51 % 0 mm
14:27 -5.4 °C -11.3 °C 34533.8 hPa East 20.9 km/h 20.9 km/h 51 % 0 mm
14:32 -5.2 °C -11.2 °C 34533.8 hPa NNE 15.3 km/h 15.3 km/h 51 % 0 mm
14:37 -5.2 °C -11.2 °C 34496.6 hPa ESE 12.2 km/h 12.2 km/h 51 % 0 mm
14:42 -5.4 °C -11.4 °C 34496.6 hPa South 20.9 km/h 20.9 km/h 50 % 0 mm
14:47 -5.3 °C -11.3 °C 34496.6 hPa SE 23.8 km/h 23.8 km/h 50 % 0 mm
14:52 -5.5 °C -11.7 °C 34496.6 hPa SSE 20.9 km/h 20.9 km/h 49 % 0 mm
14:57 -5.2 °C -11.5 °C 34496.6 hPa SW 15 km/h 15 km/h 49 % 0 mm
15:02 -5.1 °C -11.3 °C 34496.6 hPa East 10.3 km/h 10.3 km/h 49 % 0 mm
15:03 -5.1 °C -11.3 °C 34496.6 hPa East 10.3 km/h 10.3 km/h 49 % 0 mm
15:08 -5.2 °C -11.5 °C 34496.6 hPa ESE 20.9 km/h 20.9 km/h 49 % 0 mm
15:13 -5.7 °C -11.9 °C 34496.6 hPa ESE 15.3 km/h 15.3 km/h 49 % 0 mm
15:18 -5.4 °C -11.4 °C 34496.6 hPa ESE 15.3 km/h 15.3 km/h 50 % 0 mm
15:23 -5.4 °C -11.6 °C 34496.6 hPa SE 16.1 km/h 16.1 km/h 49 % 0 mm
15:28 -5.4 °C -11.6 °C 34496.6 hPa ENE 20.9 km/h 20.9 km/h 49 % 0 mm
15:33 -5.4 °C -11.6 °C 34496.6 hPa ESE 17.9 km/h 17.9 km/h 49 % 0 mm
15:38 -5.2 °C -11.5 °C 34462.7 hPa ENE 20.9 km/h 20.9 km/h 49 % 0 mm
15:43 -5.2 °C -11.4 °C 34462.7 hPa South 11.9 km/h 11.9 km/h 49 % 0 mm
15:48 -5.2 °C -11.5 °C 34462.7 hPa ESE 26.9 km/h 26.9 km/h 49 % 0 mm
15:53 -5.4 °C -11.8 °C 34496.6 hPa SE 15 km/h 16.6 km/h 48 % 0 mm
15:58 -5.4 °C -11.6 °C 34496.6 hPa ESE 20.9 km/h 20.9 km/h 49 % 0 mm
16:03 -5.3 °C -11.6 °C 34496.6 hPa ESE 20.9 km/h 20.9 km/h 49 % 0 mm
16:08 -5.2 °C -11.5 °C 34462.7 hPa East 19.6 km/h 19.6 km/h 49 % 0 mm
16:13 -5.2 °C -11.5 °C 34462.7 hPa ENE 23.3 km/h 23.3 km/h 49 % 0 mm
16:18 -5.3 °C -11.7 °C 34462.7 hPa ESE 20.9 km/h 20.9 km/h 48 % 0 mm
16:23 -5.3 °C -11.8 °C 34462.7 hPa ENE 20.9 km/h 20.9 km/h 48 % 0 mm
16:28 -5.3 °C -11.7 °C 34462.7 hPa ESE 19.6 km/h 19.6 km/h 48 % 0 mm
16:33 -5.4 °C -11.6 °C 34462.7 hPa East 20.9 km/h 20.9 km/h 49 % 0 mm
16:38 -5.4 °C -11.7 °C 34462.7 hPa ESE 17.9 km/h 17.9 km/h 49 % 0 mm
16:43 -5.5 °C -11.7 °C 34462.7 hPa ENE 14.5 km/h 14.5 km/h 49 % 0 mm
16:48 -5.3 °C -11.6 °C 34462.7 hPa ENE 16.6 km/h 16.6 km/h 49 % 0 mm
16:58 -5.5 °C -11.9 °C 34428.8 hPa ESE 20.9 km/h 20.9 km/h 48 % 0 mm
17:03 -5.6 °C -11.9 °C 34428.8 hPa SE 26.9 km/h 26.9 km/h 48 % 0 mm
17:08 -5.5 °C -11.9 °C 34462.7 hPa ESE 20.9 km/h 20.9 km/h 48 % 0 mm
17:13 -5.4 °C -11.8 °C 34462.7 hPa SSE 15.6 km/h 15.6 km/h 48 % 0 mm
17:18 -5.3 °C -11.9 °C 34462.7 hPa ESE 20.9 km/h 20.9 km/h 47 % 0 mm
17:23 -5.4 °C -12.1 °C 34496.6 hPa SW 17.9 km/h 17.9 km/h 47 % 0 mm
17:28 -5.6 °C -12.1 °C 34496.6 hPa SSE 9 km/h 9 km/h 47 % 0 mm
17:33 -5.4 °C -12.1 °C 34496.6 hPa ESE 15.6 km/h 15.6 km/h 47 % 0 mm
17:38 -5.5 °C -12.3 °C 34462.7 hPa ESE 22 km/h 22 km/h 46 % 0 mm
17:43 -5.6 °C -12.2 °C 34462.7 hPa SE 23.8 km/h 23.8 km/h 47 % 0 mm
17:48 -5.6 °C -12.3 °C 34462.7 hPa ESE 15 km/h 15 km/h 46 % 0 mm
17:53 -5.6 °C -12.3 °C 34462.7 hPa ESE 20.9 km/h 20.9 km/h 46 % 0 mm
17:58 -5.7 °C -12.4 °C 34462.7 hPa ENE 20.9 km/h 20.9 km/h 46 % 0 mm
18:03 -5.7 °C -12.4 °C 34462.7 hPa East 17.9 km/h 17.9 km/h 46 % 0 mm
18:08 -5.7 °C -12.7 °C 34462.7 hPa East 15 km/h 15.6 km/h 45 % 0 mm
18:13 -5.8 °C -12.7 °C 34462.7 hPa ESE 16.1 km/h 16.1 km/h 45 % 0 mm
18:18 -5.8 °C -12.7 °C 34462.7 hPa East 18.3 km/h 18.3 km/h 45 % 0 mm
18:23 -5.9 °C -13 °C 34428.8 hPa SE 20.9 km/h 20.9 km/h 44 % 0 mm
18:28 -5.9 °C -13 °C 34428.8 hPa SE 15 km/h 15 km/h 44 % 0 mm
18:33 -5.9 °C -13 °C 34428.8 hPa SE 17.9 km/h 17.9 km/h 44 % 0 mm
18:38 -5.9 °C -13 °C 34428.8 hPa East 15.3 km/h 15.3 km/h 44 % 0 mm
18:43 -6 °C -13.1 °C 34428.8 hPa SE 14.5 km/h 14.5 km/h 44 % 0 mm
18:48 -6.1 °C -13.1 °C 34428.8 hPa ESE 15 km/h 15 km/h 44 % 0 mm
18:53 -6.1 °C -13.2 °C 34462.7 hPa East 23.8 km/h 23.8 km/h 44 % 0 mm
18:58 -6.2 °C -13.1 °C 34462.7 hPa ESE 17.9 km/h 17.9 km/h 45 % 0 mm
19:03 -6.2 °C -13.1 °C 34462.7 hPa ESE 11.9 km/h 11.9 km/h 45 % 0 mm
19:08 -6.3 °C -13.2 °C 34462.7 hPa East 11.1 km/h 11.1 km/h 45 % 0 mm
19:13 -6.3 °C -13.2 °C 34462.7 hPa ESE 11.9 km/h 11.9 km/h 45 % 0 mm
19:18 -6.4 °C -13.2 °C 34462.7 hPa ESE 8.5 km/h 8.5 km/h 45 % 0 mm
19:20 -9.1 °C -12.8 °C 34462.7 hPa NNE 2.6 km/h 2.6 km/h 64 % 0 mm
19:23 -6.4 °C -13.4 °C 34462.7 hPa ESE 11.9 km/h 11.9 km/h 44 % 0 mm
19:28 -6.5 °C -13.5 °C 34462.7 hPa ESE 15 km/h 15 km/h 44 % 0 mm
19:30 -9 °C -12.8 °C 34496.6 hPa Calm   5.1 km/h 64 % 0 mm
19:33 -6.6 °C -13.6 °C 34462.7 hPa ESE 11.9 km/h 11.9 km/h 44 % 0 mm
19:38 -6.6 °C -13.7 °C 34462.7 hPa ESE 6 km/h 6 km/h 44 % 0 mm
19:40 -9.1 °C -12.7 °C 34462.7 hPa Calm   2.6 km/h 65 % 0 mm
19:43 -6.7 °C -13.7 °C 34462.7 hPa SE 15 km/h 15 km/h 44 % 0 mm
19:48 -6.7 °C -13.7 °C 34496.6 hPa NNE 6.8 km/h 6.8 km/h 44 % 0 mm
19:50 -9.3 °C -13.1 °C 34462.7 hPa NW 2.6 km/h 2.6 km/h 64 % 0 mm
19:53 -6.8 °C -13.8 °C 34496.6 hPa East 11.9 km/h 11.9 km/h 44 % 0 mm
19:58 -6.9 °C -13.9 °C 34496.6 hPa East 9 km/h 9 km/h 44 % 0 mm
20:00 -9.3 °C -13.1 °C 34462.7 hPa Calm     64 % 0 mm
20:03 -6.9 °C -13.9 °C 34462.7 hPa East 11.9 km/h 11.9 km/h 44 % 0 mm
20:08 -6.9 °C -13.9 °C 34462.7 hPa ENE 9 km/h 9 km/h 44 % 0 mm
20:10 -9.4 °C -13 °C 34462.7 hPa NNE 2.6 km/h 5.1 km/h 65 % 0 mm
20:13 -7 °C -14 °C 34462.7 hPa NE 3.7 km/h 3.7 km/h 44 % 0 mm
20:18 -7.1 °C -14.1 °C 34462.7 hPa NNE 3.1 km/h 3.1 km/h 44 % 0 mm
20:20 -9.6 °C -13.2 °C 34462.7 hPa NE 2.6 km/h 5.1 km/h 65 % 0 mm
20:23 -7.1 °C -14.1 °C 34462.7 hPa Calm     44 % 0 mm
20:28 -7.2 °C -14 °C 34462.7 hPa West 3.1 km/h 3.1 km/h 45 % 0 mm
20:30 -9.7 °C -13.2 °C 34462.7 hPa Calm   2.6 km/h 66 % 0 mm
20:33 -7.3 °C -13.9 °C 34462.7 hPa Calm     46 % 0 mm
20:38 -7.3 °C -13.9 °C 34462.7 hPa Calm     46 % 0 mm
20:40 -9.7 °C -13.2 °C 34462.7 hPa Calm     66 % 0 mm
20:48 -7.4 °C -13.8 °C 34462.7 hPa NE 6 km/h 6 km/h 47 % 0 mm
20:50 -9.9 °C -13.2 °C 34462.7 hPa Calm     67 % 0 mm
20:53 -7.4 °C -13.8 °C 34462.7 hPa Calm     47 % 0 mm
20:58 -7.4 °C -13.7 °C 34462.7 hPa SSW 3.1 km/h   48 % 0 mm
21:00 -10 °C -13.2 °C 34462.7 hPa Calm     68 % 0 mm
21:03 -7.5 °C -13.7 °C 34462.7 hPa Calm     48 % 0 mm
21:08 -7.6 °C -13.6 °C 34462.7 hPa NE 3.1 km/h 3.1 km/h 49 % 0 mm
21:10 -10.1 °C -13.2 °C 34462.7 hPa Calm     69 % 0 mm
21:13 -7.6 °C -13.7 °C 34462.7 hPa WNW 3.7 km/h   49 % 0 mm
21:18 -7.7 °C -13.7 °C 34462.7 hPa West 6 km/h 6.3 km/h 49 % 0 mm
21:20 -10.1 °C -13.2 °C 34462.7 hPa Calm     69 % 0 mm
21:23 -7.7 °C -13.7 °C 34462.7 hPa NW 3.1 km/h 3.1 km/h 49 % 0 mm
21:28 -7.7 °C -13.7 °C 34462.7 hPa Calm     49 % 0 mm
21:30 -10.2 °C -13.2 °C 34462.7 hPa Calm     70 % 0 mm
21:33 -7.7 °C -13.7 °C 34462.7 hPa Calm     49 % 0 mm
21:38 -7.7 °C -13.6 °C 34462.7 hPa Calm     50 % 0 mm
21:40 -10.2 °C -13.2 °C 34462.7 hPa Calm     70 % 0 mm
21:43 -7.8 °C -13.7 °C 34462.7 hPa NW 6 km/h 6 km/h 50 % 0 mm
21:48 -7.8 °C -13.7 °C 34462.7 hPa Calm     50 % 0 mm
21:50 -10.3 °C -13.2 °C 34462.7 hPa Calm     71 % 0 mm
21:53 -7.8 °C -13.6 °C 34462.7 hPa Calm     51 % 0 mm
21:58 -7.9 °C -13.4 °C 34462.7 hPa Calm     52 % 0 mm
22:00 -10.3 °C -13.2 °C 34462.7 hPa Calm     71 % 0 mm
22:03 -7.9 °C -13.4 °C 34462.7 hPa Calm     52 % 0 mm
22:08 -7.9 °C -13.3 °C 34462.7 hPa Calm     53 % 0 mm
22:10 -10.3 °C -13.2 °C 34462.7 hPa Calm   2.6 km/h 71 % 0 mm
22:13 -7.9 °C -13 °C 34462.7 hPa Calm     55 % 0 mm
22:18 -8.1 °C -13.2 °C 34462.7 hPa Calm     55 % 0 mm
22:20 -10.3 °C -13.1 °C 34462.7 hPa Calm     72 % 0 mm
22:23 -8.3 °C -13.5 °C 34462.7 hPa Calm     54 % 0 mm
22:28 -8.3 °C -13.5 °C 34462.7 hPa Calm     54 % 0 mm
22:30 -10.3 °C -13.1 °C 34462.7 hPa Calm     72 % 0 mm
22:33 -8.2 °C -13.3 °C 34462.7 hPa Calm     55 % 0 mm
22:38 -8.3 °C -13.3 °C 34462.7 hPa Calm     55 % 0 mm
22:40 -10.3 °C -13.1 °C 34462.7 hPa Calm     72 % 0 mm
22:43 -8.3 °C -13.2 °C 34462.7 hPa Calm     56 % 0 mm
22:48 -8.3 °C -13.1 °C 34462.7 hPa Calm     57 % 0 mm
22:50 -10.3 °C -13.1 °C 34462.7 hPa Calm   2.6 km/h 72 % 0 mm
22:53 -8.4 °C -12.9 °C 34462.7 hPa Calm     59 % 0 mm
22:58 -8.5 °C -13.1 °C 34462.7 hPa Calm     58 % 0 mm
23:00 -10.4 °C -13 °C 34462.7 hPa SSW 2.6 km/h 2.6 km/h 73 % 0 mm
23:03 -8.5 °C -12.9 °C 34462.7 hPa WNW 4.2 km/h   59 % 0 mm
23:08 -8.6 °C -12.9 °C 34462.7 hPa Calm     60 % 0 mm
23:10 -10.4 °C -13 °C 34462.7 hPa Calm     73 % 0 mm
23:13 -8.6 °C -12.9 °C 34462.7 hPa Calm     60 % 0 mm
23:18 -8.6 °C -12.8 °C 34496.6 hPa Calm     61 % 0 mm
23:20 -10.3 °C -12.9 °C 34462.7 hPa Calm     73 % 0 mm
23:23 -8.6 °C -12.7 °C 34496.6 hPa Calm     62 % 0 mm
23:28 -8.6 °C -12.7 °C 34496.6 hPa Calm     62 % 0 mm
23:30 -10.3 °C -12.8 °C 34462.7 hPa Calm     74 % 0 mm
23:33 -8.7 °C -12.8 °C 34496.6 hPa NNE 3.1 km/h 3.1 km/h 62 % 0 mm
23:38 -8.8 °C -12.9 °C 34496.6 hPa ESE 6 km/h 6 km/h 61 % 0 mm
23:40 -10.3 °C -12.9 °C 34462.7 hPa Calm   5.1 km/h 73 % 0 mm
23:43 -8.8 °C -12.8 °C 34496.6 hPa Calm     62 % 0 mm
23:48 -8.9 °C -13.1 °C 34462.7 hPa NE 3.1 km/h 3.1 km/h 61 % 0 mm
23:50 -10.3 °C -12.8 °C 34462.7 hPa Calm   2.6 km/h 74 % 0 mm
23:53 -8.9 °C -13.1 °C 34462.7 hPa Calm     61 % 0 mm
23:58 -9 °C -13.2 °C 34462.7 hPa Calm     61 % 0 mm
Meteo Sesrovires
Elogis d' Weather Underground - 2 mb

Guio original per  Jim McMurry - jmcmurry@mwt.net Adaptat per a la plantilla per  Wim van der Kuil - Leuven-Template.eu

Trobareu la nostra informacio del temps tambe a:

Weather Underground

AWEKAS